Time;durP1;ratioP1;P1;durP2;ratioP2;P2;SDS_P1;SDS_P2;PMS_P1;PMS_P2;Temp;Humidity;BMP_temperature;BMP_pressure;BME280_temperature;BME280_humidity;BME280_pressure;Samples;Min_cycle;Max_cycle;Signal;HPM_P1;HPM_P2
2022/03/13 00:00:10;;;;;;;22.27;14.55;;;;;;;10.28;58.37;101426.47;5024192;28;20200;-73
2022/03/13 00:02:36;;;;;;;20.90;14.15;;;;;;;10.27;58.45;101429.44;5020042;28;20480;-73
2022/03/13 00:05:01;;;;;;;19.00;13.90;;;;;;;10.24;58.89;101430.72;5005239;28;20045;-73
2022/03/13 00:07:28;;;;;;;20.45;13.70;;;;;;;10.23;58.46;101430.91;5008542;28;20544;-73
2022/03/13 00:09:54;;;;;;;19.52;13.63;;;;;;;10.23;58.92;101434.47;5021598;28;20026;-73
2022/03/13 00:12:26;;;;;;;20.73;13.73;;;;;;;10.21;59.20;101438.50;5024098;28;20032;-73
2022/03/13 00:14:52;;;;;;;20.10;13.30;;;;;;;10.25;59.17;101432.41;5024880;28;20018;-73
2022/03/13 00:17:19;;;;;;;18.15;12.52;;;;;;;10.22;59.04;101441.03;5020330;28;20025;-73
2022/03/13 00:19:44;;;;;;;17.17;12.63;;;;;;;10.22;59.48;101437.44;5022500;28;20030;-73
2022/03/13 00:22:10;;;;;;;17.30;11.43;;;;;;;10.25;59.23;101431.56;5023791;28;20036;-71
2022/03/13 00:24:36;;;;;;;19.05;12.68;;;;;;;10.27;59.18;101423.97;5024068;28;20139;-73
2022/03/13 00:27:02;;;;;;;18.05;12.35;;;;;;;10.26;59.21;101434.09;5022171;28;20159;-74
2022/03/13 00:29:28;;;;;;;16.92;12.18;;;;;;;10.27;58.97;101430.28;5023766;28;20032;-73
2022/03/13 00:31:53;;;;;;;19.52;12.70;;;;;;;10.30;58.55;101420.78;5023529;28;20524;-73
2022/03/13 00:34:19;;;;;;;19.30;12.45;;;;;;;10.27;59.27;101427.53;5022682;28;20460;-72
2022/03/13 00:36:44;;;;;;;20.85;13.70;;;;;;;10.23;59.29;101426.25;5023520;28;20025;-74
2022/03/13 00:39:10;;;;;;;18.10;13.07;;;;;;;10.25;58.77;101420.59;5024473;28;20109;-74
2022/03/13 00:41:36;;;;;;;17.38;12.07;;;;;;;10.22;59.07;101416.31;5021284;28;20088;-72
2022/03/13 00:44:02;;;;;;;18.17;12.77;;;;;;;10.22;59.23;101404.50;5033516;28;20076;-73
2022/03/13 00:46:28;;;;;;;20.63;12.85;;;;;;;10.23;59.15;101406.19;5024814;28;20564;-71
2022/03/13 00:48:53;;;;;;;18.92;13.27;;;;;;;10.19;59.57;101399.44;5023293;28;20547;-73
2022/03/13 00:51:19;;;;;;;17.80;12.50;;;;;;;10.14;59.55;101389.97;5025947;28;20034;-73
2022/03/13 00:53:44;;;;;;;23.75;14.70;;;;;;;10.15;59.24;101399.03;5028076;28;20365;-72
2022/03/13 00:56:10;;;;;;;19.58;13.80;;;;;;;10.10;60.11;101398.84;5006939;28;20030;-74
2022/03/13 00:58:38;;;;;;;19.60;13.77;;;;;;;10.10;59.33;101398.84;5037152;28;20171;-73
2022/03/13 01:01:03;;;;;;;23.10;14.27;;;;;;;10.02;59.68;101399.88;5032179;28;20404;-73
2022/03/13 01:03:36;;;;;;;21.20;14.50;;;;;;;9.97;60.14;101385.97;5022354;28;20045;-73
2022/03/13 01:06:03;;;;;;;20.70;13.90;;;;;;;9.90;60.50;101396.13;5034410;28;20416;-73
2022/03/13 01:08:29;;;;;;;20.10;14.25;;;;;;;9.87;59.92;101385.56;5022697;28;20142;-73
2022/03/13 01:10:55;;;;;;;26.25;15.45;;;;;;;9.82;60.12;101388.09;5022190;28;20108;-72
2022/03/13 01:13:21;;;;;;;23.02;14.68;;;;;;;9.75;61.13;101387.28;5028957;28;20636;-72
2022/03/13 01:15:47;;;;;;;21.65;15.88;;;;;;;9.68;60.70;101380.94;5035831;28;20021;-73
2022/03/13 01:18:13;;;;;;;22.83;15.77;;;;;;;9.64;61.06;101375.03;5022576;28;20028;-72
2022/03/13 01:20:38;;;;;;;21.98;15.27;;;;;;;9.61;61.47;101389.16;5023392;28;20467;-71
2022/03/13 01:23:03;;;;;;;21.13;14.93;;;;;;;9.63;61.03;101370.63;5023412;28;20033;-72
2022/03/13 01:25:29;;;;;;;22.73;15.27;;;;;;;9.59;61.12;101372.09;5024204;28;20021;-72
2022/03/13 01:27:54;;;;;;;22.63;15.82;;;;;;;9.58;61.52;101370.41;5021722;28;20036;-73
2022/03/13 01:30:19;;;;;;;23.67;14.90;;;;;;;9.49;61.61;101363.44;5017727;28;20034;-73
2022/03/13 01:32:52;;;;;;;21.20;14.52;;;;;;;9.43;61.73;101364.25;5021564;28;20029;-73
2022/03/13 01:35:22;;;;;;;21.55;14.57;;;;;;;9.40;61.95;101370.19;5022934;28;20037;-73
2022/03/13 01:37:48;;;;;;;23.17;15.35;;;;;;;9.31;62.49;101362.16;5020786;28;20124;-74
2022/03/13 01:40:19;;;;;;;20.95;14.18;;;;;;;9.29;62.31;101352.47;5023051;28;20661;-74
2022/03/13 01:42:45;;;;;;;21.58;14.35;;;;;;;9.22;62.90;101349.72;5023200;28;20021;-73
2022/03/13 01:45:13;;;;;;;20.65;14.15;;;;;;;9.17;63.16;101360.44;5022447;28;20133;-73
2022/03/13 01:47:38;;;;;;;;;;;;;;;9.22;61.74;101348.88;5020400;28;20455;-74
2022/03/13 01:50:09;;;;;;;19.77;13.88;;;;;;;9.13;63.25;101341.94;5023534;28;19943;-73
2022/03/13 01:52:34;;;;;;;20.73;14.30;;;;;;;9.09;63.38;101342.34;5023194;28;20025;-74
2022/03/13 01:54:59;;;;;;;19.40;14.23;;;;;;;9.04;63.86;101333.06;5022383;28;20032;-74
2022/03/13 01:57:25;;;;;;;20.40;13.73;;;;;;;8.98;63.82;101325.69;5021949;28;20427;-74
2022/03/13 01:59:54;;;;;;;20.08;13.77;;;;;;;8.92;64.42;101331.97;5022820;28;20031;-74
2022/03/13 02:02:20;;;;;;;21.33;14.10;;;;;;;8.91;64.24;101336.59;5020953;28;20017;-66
2022/03/13 02:04:51;;;;;;;21.10;13.45;;;;;;;8.88;64.99;101331.56;5022739;28;20045;-74
2022/03/13 02:07:16;;;;;;;20.83;13.90;;;;;;;8.86;64.54;101333.63;5021583;28;20423;-73
2022/03/13 02:09:42;;;;;;;21.13;14.05;;;;;;;8.82;64.89;101335.97;5022457;28;20028;-74
2022/03/13 02:12:09;;;;;;;20.35;13.45;;;;;;;8.79;65.65;101330.91;5021278;28;20030;-74
2022/03/13 02:14:34;;;;;;;19.55;12.65;;;;;;;8.79;65.16;101322.69;5023130;28;20014;-75
2022/03/13 02:16:59;;;;;;;19.15;13.07;;;;;;;8.77;65.55;101322.06;5019807;28;20471;-74
2022/03/13 02:19:25;;;;;;;19.52;12.90;;;;;;;8.76;65.97;101327.72;5021515;28;20033;-73
2022/03/13 02:21:51;;;;;;;17.45;12.18;;;;;;;8.76;65.94;101325.81;5022048;28;20005;-74
2022/03/13 02:24:28;;;;;;;18.20;12.35;;;;;;;8.73;66.22;101320.78;5022125;28;20026;-74
2022/03/13 02:26:56;;;;;;;20.73;13.65;;;;;;;8.77;65.93;101324.78;5020815;28;20449;-74
2022/03/13 02:29:22;;;;;;;22.50;14.18;;;;;;;8.81;65.52;101316.97;5022027;28;20499;-74
2022/03/13 02:31:47;;;;;;;19.05;13.88;;;;;;;8.82;65.77;101321.44;5021983;28;20029;-72
2022/03/13 02:34:15;;;;;;;22.13;15.02;;;;;;;8.80;65.63;101324.38;5016964;28;20033;-73
2022/03/13 02:36:53;;;;;;;20.77;14.10;;;;;;;8.83;65.55;101328.59;5013061;28;20029;-73
2022/03/13 02:39:19;;;;;;;22.60;15.77;;;;;;;8.79;65.50;101325.41;5022936;28;20021;-73
2022/03/13 02:41:44;;;;;;;25.27;15.98;;;;;;;8.77;65.90;101329.44;5036802;28;20894;-73
2022/03/13 02:44:12;;;;;;;26.35;16.83;;;;;;;8.74;66.01;101329.84;5041523;28;20104;-73
2022/03/13 02:46:46;;;;;;;24.70;16.15;;;;;;;8.76;65.58;101328.56;5023767;28;20036;-74
2022/03/13 02:49:13;;;;;;;24.52;16.92;;;;;;;8.70;65.98;101325.81;5020996;28;20510;-73
2022/03/13 02:51:38;;;;;;;23.02;16.38;;;;;;;8.67;66.26;101316.13;5022214;28;20076;-72
2022/03/13 02:54:03;;;;;;;25.90;17.23;;;;;;;8.67;65.99;101318.00;5022564;28;20029;-74
2022/03/13 02:56:29;;;;;;;23.75;17.08;;;;;;;8.66;65.78;101311.69;5020438;28;20030;-74
2022/03/13 02:58:54;;;;;;;26.45;17.63;;;;;;;8.66;65.74;101311.69;5022013;28;20186;-74
2022/03/13 03:01:21;;;;;;;27.42;17.98;;;;;;;8.64;65.87;101313.78;5021283;28;20496;-73
2022/03/13 03:03:47;;;;;;;28.37;18.47;;;;;;;8.65;66.11;101309.16;5020596;28;20057;-74
2022/03/13 03:06:13;;;;;;;26.92;18.33;;;;;;;8.63;66.23;101309.38;5020583;28;20040;-74
2022/03/13 03:08:38;;;;;;;27.65;18.98;;;;;;;8.62;66.42;101306.81;5022698;28;20372;-75
2022/03/13 03:11:04;;;;;;;29.17;19.58;;;;;;;8.63;65.98;101306.63;5021939;28;20044;-74
2022/03/13 03:13:29;;;;;;;27.27;18.88;;;;;;;8.61;65.99;101303.25;5019425;28;20040;-74
2022/03/13 03:15:55;;;;;;;29.95;20.25;;;;;;;8.61;66.32;101305.97;5021244;28;20033;-73
2022/03/13 03:18:20;;;;;;;30.55;19.83;;;;;;;8.63;66.23;101311.28;5020769;28;20025;-74
2022/03/13 03:20:45;;;;;;;27.58;18.40;;;;;;;8.62;66.55;101304.97;5021544;28;20033;-74
2022/03/13 03:23:10;;;;;;;30.70;19.65;;;;;;;8.62;66.29;101301.34;5020673;28;20030;-74
2022/03/13 03:25:36;;;;;;;29.95;20.10;;;;;;;8.65;66.56;101296.31;5020842;28;20034;-73
2022/03/13 03:28:01;;;;;;;29.00;19.20;;;;;;;8.64;66.50;101302.00;5021618;28;20022;-74
2022/03/13 03:30:30;;;;;;;27.02;19.48;;;;;;;8.63;66.66;101292.09;5020387;28;20026;-73
2022/03/13 03:32:55;;;;;;;30.42;20.48;;;;;;;8.58;67.84;101293.56;5038059;28;20167;-73
2022/03/13 03:35:23;;;;;;;33.92;21.13;;;;;;;8.59;67.70;101294.41;5041385;28;20029;-75
2022/03/13 03:37:50;;;;;;;32.10;21.15;;;;;;;8.58;67.83;101298.19;5038790;28;20039;-73
2022/03/13 03:40:16;;;;;;;30.93;21.27;;;;;;;8.56;68.15;101303.03;5029177;28;20030;-73
2022/03/13 03:42:43;;;;;;;32.38;21.63;;;;;;;8.53;68.64;101297.97;5035708;28;20056;-73
2022/03/13 03:45:09;;;;;;;33.47;22.13;;;;;;;8.48;69.38;101293.13;5023138;28;20021;-71
2022/03/13 03:47:34;;;;;;;33.42;22.15;;;;;;;8.46;69.85;101299.84;5028355;28;20037;-74
2022/03/13 03:50:00;;;;;;;32.85;22.40;;;;;;;8.44;69.67;101297.31;5020387;28;20075;-74
2022/03/13 03:52:25;;;;;;;32.00;21.75;;;;;;;8.43;69.86;101300.25;5021160;28;20112;-74
2022/03/13 03:54:51;;;;;;;31.67;21.92;;;;;;;8.42;69.99;101290.38;5024027;28;20052;-74
2022/03/13 03:57:17;;;;;;;33.33;23.55;;;;;;;8.39;70.51;101288.03;5024492;28;20110;-74
2022/03/13 03:59:42;;;;;;;36.72;22.95;;;;;;;8.36;70.08;101294.75;5023563;28;20451;-74
2022/03/13 04:02:07;;;;;;;38.20;24.05;;;;;;;8.35;70.38;101298.50;5019221;28;20312;-74
2022/03/13 04:04:33;;;;;;;33.55;24.02;;;;;;;8.35;70.20;101298.50;5038973;28;20049;-74
2022/03/13 04:06:58;;;;;;;34.72;23.60;;;;;;;8.33;70.85;101295.97;5044878;28;20025;-73
2022/03/13 04:09:23;;;;;;;38.30;24.48;;;;;;;8.33;70.37;101292.41;5040368;28;20674;-74
2022/03/13 04:11:49;;;;;;;36.00;24.10;;;;;;;8.35;70.33;101292.19;5043401;28;20029;-74
2022/03/13 04:14:15;;;;;;;35.92;24.75;;;;;;;8.35;70.44;101286.72;5036885;28;20252;-73
2022/03/13 04:16:41;;;;;;;35.80;23.92;;;;;;;8.31;71.23;101287.16;5044181;28;20436;-74
2022/03/13 04:19:08;;;;;;;39.53;28.25;;;;;;;8.31;70.25;101292.63;5040416;28;20056;-74
2022/03/13 04:21:34;;;;;;;40.42;28.80;;;;;;;8.31;70.32;101283.53;5024527;28;20022;-74
2022/03/13 04:23:59;;;;;;;44.65;30.65;;;;;;;8.28;70.62;101276.59;5042440;28;20033;-73
2022/03/13 04:26:25;;;;;;;39.35;28.20;;;;;;;8.28;69.96;101279.34;5042927;28;20040;-74
2022/03/13 04:28:50;;;;;;;42.13;28.27;;;;;;;8.26;70.38;101281.44;5043802;28;20364;-73
2022/03/13 04:31:18;;;;;;;39.65;25.52;;;;;;;8.28;69.72;101281.22;5030656;28;20021;-74
2022/03/13 04:33:43;;;;;;;39.25;26.08;;;;;;;8.24;69.41;101286.25;5043435;28;20094;-73
2022/03/13 04:36:14;;;;;;;39.45;26.45;;;;;;;8.22;70.28;101282.91;5039437;28;20053;-74
2022/03/13 04:38:41;;;;;;;38.13;25.15;;;;;;;8.21;69.38;101280.34;5034266;28;20029;-74
2022/03/13 04:41:07;;;;;;;39.65;26.55;;;;;;;8.21;68.78;101286.69;5025050;28;20028;-74
2022/03/13 04:43:33;;;;;;;41.60;27.63;;;;;;;8.23;68.02;101276.38;5024064;28;20567;-73
2022/03/13 04:45:58;;;;;;;40.78;27.52;;;;;;;8.27;67.33;101285.84;5024759;28;20037;-73
2022/03/13 04:48:23;;;;;;;45.15;28.13;;;;;;;8.26;67.64;101300.59;5036285;28;20025;-73
2022/03/13 04:50:49;;;;;;;41.78;28.50;;;;;;;8.29;66.75;101294.69;5025890;28;20026;-74
2022/03/13 04:53:15;;;;;;;40.90;27.58;;;;;;;8.26;67.51;101292.38;5024948;28;20030;-74
2022/03/13 04:55:41;;;;;;;41.38;27.55;;;;;;;8.23;67.51;101295.53;5039705;28;20099;-74
2022/03/13 04:58:08;;;;;;;41.83;28.38;;;;;;;8.23;67.54;101294.69;5044060;28;20033;-73
2022/03/13 05:00:38;;;;;;;38.42;27.48;;;;;;;8.18;68.52;101292.56;5028025;28;20167;-73
2022/03/13 05:03:06;;;;;;;40.92;25.77;;;;;;;8.13;68.31;101295.06;5023314;28;20131;-74
2022/03/13 05:05:34;;;;;;;;;;;;;;;8.14;66.92;101288.53;5023545;28;20184;-74
2022/03/13 05:08:00;;;;;;;40.00;24.90;;;;;;;8.06;68.21;101288.72;5023479;28;20261;-75
2022/03/13 05:10:29;;;;;;;40.25;25.55;;;;;;;7.98;68.76;101281.53;5027951;28;20028;-74
2022/03/13 05:12:54;;;;;;;39.92;24.90;;;;;;;7.92;69.19;101281.50;5043438;28;20033;-74
2022/03/13 05:15:19;;;;;;;38.53;24.08;;;;;;;7.85;69.42;101275.97;5042496;28;20416;-74
2022/03/13 05:17:45;;;;;;;40.53;25.08;;;;;;;7.81;69.60;101274.72;5041764;28;20079;-75
2022/03/13 05:20:11;;;;;;;39.13;25.40;;;;;;;7.80;69.29;101273.00;5028749;28;20380;-73
2022/03/13 05:22:36;;;;;;;36.92;24.10;;;;;;;7.72;69.98;101270.44;5023902;28;20032;-74
2022/03/13 05:25:02;;;;;;;40.58;25.85;;;;;;;7.69;70.00;101274.41;5034687;28;20336;-74
2022/03/13 05:27:27;;;;;;;39.45;26.15;;;;;;;7.68;70.26;101278.19;5023638;28;20033;-73
2022/03/13 05:29:52;;;;;;;38.33;25.00;;;;;;;7.64;70.14;101268.72;5022980;28;20029;-73
2022/03/13 05:32:17;;;;;;;41.63;24.95;;;;;;;7.65;70.25;101266.81;5015195;28;20514;-74
2022/03/13 05:34:43;;;;;;;41.47;25.58;;;;;;;7.61;70.94;101263.66;5023524;28;20021;-73
2022/03/13 05:37:08;;;;;;;41.80;26.13;;;;;;;7.64;69.45;101267.88;5023186;28;20104;-72
2022/03/13 05:39:35;;;;;;;39.85;25.23;;;;;;;7.62;69.89;101270.81;5024503;28;20021;-72
2022/03/13 05:42:01;;;;;;;52.42;26.40;;;;;;;7.61;70.83;101274.59;5023745;28;20037;-73
2022/03/13 05:44:27;;;;;;;40.78;25.23;;;;;;;7.62;70.53;101278.16;5039535;28;20445;-73
2022/03/13 05:46:52;;;;;;;38.72;25.92;;;;;;;7.61;70.27;101280.06;5041195;28;20029;-72
2022/03/13 05:49:17;;;;;;;40.10;26.10;;;;;;;7.59;70.78;101282.13;5035485;28;20392;-73
2022/03/13 05:51:43;;;;;;;43.53;26.83;;;;;;;7.58;70.46;101279.59;5021644;28;20029;-73
2022/03/13 05:54:09;;;;;;;40.08;26.27;;;;;;;7.58;70.26;101276.88;5026885;28;20013;-72
2022/03/13 05:56:35;;;;;;;39.95;25.65;;;;;;;7.55;69.85;101278.09;5036165;28;20403;-73
2022/03/13 05:59:00;;;;;;;42.58;26.27;;;;;;;7.58;69.38;101291.38;5038988;28;20074;-73
2022/03/13 06:01:26;;;;;;;40.67;25.92;;;;;;;7.54;69.76;101277.25;5022490;28;20116;-73
2022/03/13 06:03:51;;;;;;;42.92;24.38;;;;;;;7.57;69.84;101280.66;5021594;28;20539;-73
2022/03/13 06:06:17;;;;;;;42.17;26.05;;;;;;;7.60;69.95;101286.53;5022389;28;20048;-72
2022/03/13 06:08:42;;;;;;;44.65;26.85;;;;;;;7.60;69.86;101283.81;5022604;28;20029;-74
2022/03/13 06:11:08;;;;;;;42.97;25.67;;;;;;;7.61;69.76;101284.69;5030505;28;20032;-73
2022/03/13 06:13:34;;;;;;;39.80;25.33;;;;;;;7.61;69.54;101288.25;5042017;28;20032;-73
2022/03/13 06:15:59;;;;;;;48.85;26.52;;;;;;;7.64;68.82;101287.00;5031310;28;20550;-73
2022/03/13 06:18:27;;;;;;;38.92;24.42;;;;;;;7.67;68.91;101287.44;5021640;28;20358;-73
2022/03/13 06:20:52;;;;;;;43.10;24.50;;;;;;;7.66;69.24;101295.88;5019279;28;20049;-73
2022/03/13 06:23:17;;;;;;;38.33;25.38;;;;;;;7.66;68.56;101288.50;5033905;28;20095;-73
2022/03/13 06:25:43;;;;;;;39.22;25.60;;;;;;;7.65;69.30;101286.78;5042418;28;20029;-73
2022/03/13 06:28:10;;;;;;;37.58;23.98;;;;;;;7.68;67.59;101297.34;5040463;28;20534;-72
2022/03/13 06:30:35;;;;;;;39.58;24.08;;;;;;;7.65;68.68;101291.41;5027966;28;20037;-74
2022/03/13 06:33:01;;;;;;;39.30;25.65;;;;;;;7.68;67.76;101291.88;5024370;28;20021;-73
2022/03/13 06:35:26;;;;;;;40.88;24.00;;;;;;;7.78;67.45;101300.56;5041531;28;20120;-74
2022/03/13 06:37:54;;;;;;;38.65;24.60;;;;;;;7.94;67.35;101295.81;5041613;28;20057;-73
2022/03/13 06:40:21;;;;;;;40.00;24.38;;;;;;;8.12;66.95;101292.53;5030148;28;20017;-73
2022/03/13 06:42:51;;;;;;;38.60;24.15;;;;;;;8.09;65.80;101293.78;5021918;28;20136;-73
2022/03/13 06:45:17;;;;;;;40.80;24.73;;;;;;;7.98;67.38;101287.00;5028944;28;20079;-73
2022/03/13 06:47:49;;;;;;;37.35;24.13;;;;;;;7.90;67.59;101289.03;5031867;28;20030;-73
2022/03/13 06:50:16;;;;;;;39.08;24.85;;;;;;;7.84;67.29;101287.97;5020521;28;20044;-73
2022/03/13 06:52:42;;;;;;;37.22;24.17;;;;;;;7.77;67.41;101293.41;5023361;28;20021;-74
2022/03/13 06:55:08;;;;;;;40.58;24.08;;;;;;;7.77;67.50;101295.28;5022940;28;20542;-73
2022/03/13 06:57:33;;;;;;;38.33;24.08;;;;;;;7.76;67.75;101288.97;5023949;28;20028;-74
2022/03/13 07:00:00;;;;;;;39.38;25.80;;;;;;;7.78;67.25;101292.34;5026290;28;20336;-74
2022/03/13 07:02:25;;;;;;;39.78;24.45;;;;;;;7.83;67.34;101296.38;5018509;28;20080;-74
2022/03/13 07:04:51;;;;;;;43.60;24.55;;;;;;;7.87;67.07;101286.72;5021858;28;20490;-74
2022/03/13 07:07:16;;;;;;;39.05;24.60;;;;;;;7.88;67.53;101288.41;5022351;28;20131;-75
2022/03/13 07:09:41;;;;;;;39.38;23.95;;;;;;;7.93;67.46;101294.97;5021550;28;20072;-74
2022/03/13 07:12:11;;;;;;;40.63;24.17;;;;;;;7.97;67.38;101295.41;5020375;28;20038;-75
2022/03/13 07:14:38;;;;;;;38.83;24.70;;;;;;;8.03;67.45;101297.31;5022168;28;20132;-73
2022/03/13 07:17:03;;;;;;;37.50;23.70;;;;;;;8.07;66.66;101291.25;5034382;28;20045;-73
2022/03/13 07:19:29;;;;;;;37.75;23.90;;;;;;;8.20;67.00;101286.88;5019359;28;20052;-74
2022/03/13 07:21:54;;;;;;;38.15;23.92;;;;;;;8.43;67.50;101284.69;5021524;28;20017;-73
2022/03/13 07:24:19;;;;;;;38.55;25.95;;;;;;;8.43;67.43;101284.69;5022997;28;20034;-74
2022/03/13 07:26:44;;;;;;;39.05;25.00;;;;;;;8.41;66.45;101288.66;5023239;28;20432;-74
2022/03/13 07:29:10;;;;;;;38.88;24.38;;;;;;;8.40;65.95;101286.97;5029658;28;20022;-73
2022/03/13 07:31:35;;;;;;;36.05;24.55;;;;;;;8.42;66.27;101288.47;5025036;28;20025;-74
2022/03/13 07:34:00;;;;;;;37.42;25.45;;;;;;;8.46;66.51;101288.88;5025898;28;20040;-74
2022/03/13 07:36:26;;;;;;;38.67;24.92;;;;;;;8.51;66.44;101289.09;5025053;28;20026;-74
2022/03/13 07:38:51;;;;;;;36.30;23.35;;;;;;;8.54;66.48;101285.97;5024244;28;20025;-74
2022/03/13 07:41:16;;;;;;;37.92;24.13;;;;;;;8.55;65.96;101276.69;5025093;28;20041;-74
2022/03/13 07:43:42;;;;;;;38.92;24.80;;;;;;;8.56;66.37;101281.97;5023483;28;20113;-74
2022/03/13 07:46:07;;;;;;;36.08;24.30;;;;;;;8.62;66.13;101283.06;5024971;28;20381;-74
2022/03/13 07:48:34;;;;;;;38.67;24.75;;;;;;;8.64;66.20;101280.09;5027302;28;20080;-74
2022/03/13 07:51:04;;;;;;;40.15;24.55;;;;;;;8.64;67.07;101275.47;5026750;28;20021;-74
2022/03/13 07:53:29;;;;;;;39.80;24.80;;;;;;;8.65;66.73;101277.16;5024215;28;20044;-74
2022/03/13 07:55:55;;;;;;;38.33;24.83;;;;;;;8.64;66.70;101282.84;5025525;28;20026;-74
2022/03/13 07:58:21;;;;;;;40.45;25.52;;;;;;;8.58;66.94;101282.63;5025644;28;20447;-75
2022/03/13 08:00:46;;;;;;;38.38;25.73;;;;;;;8.56;65.75;101283.84;5033053;28;20029;-75
2022/03/13 08:03:17;;;;;;;40.50;25.33;;;;;;;8.55;65.98;101283.00;5032717;28;20028;-76
2022/03/13 08:05:43;;;;;;;37.75;25.42;;;;;;;8.55;66.57;101274.81;5043567;28;20361;-75
2022/03/13 08:08:08;;;;;;;41.17;25.50;;;;;;;8.56;65.96;101281.13;5031801;28;20025;-69
2022/03/13 08:10:34;;;;;;;40.33;25.27;;;;;;;8.57;66.76;101278.19;5025362;28;20021;-76
2022/03/13 08:12:59;;;;;;;39.55;25.00;;;;;;;8.58;65.19;101274.41;5036035;28;20044;-76
2022/03/13 08:15:24;;;;;;;40.83;26.13;;;;;;;8.65;65.84;101285.34;5024473;28;20484;-75
2022/03/13 08:17:49;;;;;;;39.83;25.48;;;;;;;8.68;64.27;101282.22;5021025;28;20118;-75
2022/03/13 08:20:15;;;;;;;38.00;24.23;;;;;;;8.74;63.65;101275.91;5023410;28;20033;-76
2022/03/13 08:22:40;;;;;;;37.50;24.88;;;;;;;8.80;63.69;101272.31;5025301;28;20049;-76
2022/03/13 08:25:07;;;;;;;39.75;24.55;;;;;;;8.89;61.48;101278.44;5023826;28;20025;-76
2022/03/13 08:27:34;;;;;;;39.63;25.38;;;;;;;8.89;61.26;101278.44;5023011;28;20071;-75
2022/03/13 08:30:00;;;;;;;36.65;24.27;;;;;;;8.97;60.96;101280.13;5024992;28;20389;-75
2022/03/13 08:32:25;;;;;;;39.60;24.25;;;;;;;9.04;60.17;101275.50;5018322;28;20033;-75
2022/03/13 08:34:51;;;;;;;40.80;24.92;;;;;;;9.09;60.79;101273.00;5003863;28;20026;-75
2022/03/13 08:37:17;;;;;;;37.80;24.08;;;;;;;9.18;60.10;101270.88;5003213;28;20026;-72
2022/03/13 08:39:42;;;;;;;34.70;23.63;;;;;;;9.35;59.35;101274.88;5022589;28;20057;-74
2022/03/13 08:42:08;;;;;;;35.70;24.42;;;;;;;9.53;59.50;101274.19;5024265;28;20033;-74
2022/03/13 08:44:33;;;;;;;39.50;23.98;;;;;;;9.72;57.32;101273.31;5039155;28;20036;-72
2022/03/13 08:46:59;;;;;;;37.47;24.58;;;;;;;10.03;57.91;101272.59;5023214;28;20545;-74
2022/03/13 08:49:25;;;;;;;36.70;24.25;;;;;;;10.26;56.41;101274.88;5021973;28;20056;-74
2022/03/13 08:51:51;;;;;;;38.53;23.38;;;;;;;10.33;56.50;101274.81;5022685;28;20022;-73
2022/03/13 08:54:16;;;;;;;36.42;24.17;;;;;;;10.39;55.84;101283.06;5023722;28;20132;-74
2022/03/13 08:56:46;;;;;;;35.80;23.60;;;;;;;10.55;57.01;101281.69;5024555;28;20034;-74
2022/03/13 08:59:11;;;;;;;35.33;23.83;;;;;;;10.71;55.66;101272.09;5023014;28;20367;-74
2022/03/13 09:01:36;;;;;;;35.50;23.40;;;;;;;10.93;55.40;101268.97;5033205;28;20025;-73
2022/03/13 09:04:02;;;;;;;39.67;25.08;;;;;;;11.10;55.19;101265.47;5025210;28;20785;-75
2022/03/13 09:06:27;;;;;;;36.65;23.95;;;;;;;11.37;52.75;101260.56;5021711;28;20037;-74
2022/03/13 09:08:53;;;;;;;35.03;23.85;;;;;;;11.83;53.13;101263.94;5023381;28;21689;-74
2022/03/13 09:11:18;;;;;;;37.78;24.17;;;;;;;12.59;51.95;101260.63;5030675;28;20021;-73
2022/03/13 09:13:44;;;;;;;34.28;23.40;;;;;;;13.38;48.65;101250.28;5023931;28;20164;-72
2022/03/13 09:16:09;;;;;;;39.95;24.88;;;;;;;13.83;46.93;101249.63;5022512;28;20025;-65
2022/03/13 09:18:35;;;;;;;34.88;24.08;;;;;;;14.50;46.33;101251.91;5028324;28;20029;-72
2022/03/13 09:21:00;;;;;;;36.25;24.10;;;;;;;14.88;43.30;101247.59;5042310;28;20079;-72
2022/03/13 09:23:26;;;;;;;34.38;24.20;;;;;;;15.34;43.42;101245.59;5029450;28;20044;-70
2022/03/13 09:25:53;;;;;;;39.13;24.80;;;;;;;16.43;41.46;101254.06;5024352;28;20029;-69
2022/03/13 09:28:18;;;;;;;36.95;23.10;;;;;;;17.18;38.96;101246.75;5023856;28;20116;-70
2022/03/13 09:30:44;;;;;;;34.67;23.95;;;;;;;17.77;37.93;101240.25;5023482;28;20156;-71
2022/03/13 09:33:09;;;;;;;35.50;23.58;;;;;;;18.30;37.34;101241.91;5024350;28;20033;-69
2022/03/13 09:35:34;;;;;;;34.72;23.65;;;;;;;19.12;35.39;101237.34;5035760;28;20435;-72
2022/03/13 09:38:00;;;;;;;31.70;23.33;;;;;;;19.65;34.25;101239.81;5024206;28;20029;-72
2022/03/13 09:40:27;;;;;;;36.60;25.25;;;;;;;19.93;34.20;101238.38;5023251;28;20184;-72
2022/03/13 09:42:53;;;;;;;35.47;24.65;;;;;;;20.35;33.04;101242.66;5021740;28;20033;-74
2022/03/13 09:45:18;;;;;;;36.42;25.42;;;;;;;19.86;32.57;101241.44;5034171;28;20029;-77
2022/03/13 09:47:45;;;;;;;32.72;23.63;;;;;;;20.22;33.48;101241.31;5042142;28;20045;-71
2022/03/13 09:50:14;;;;;;;39.75;25.88;;;;;;;20.70;32.87;101245.25;5029723;28;20486;-70
2022/03/13 09:52:42;;;;;;;35.05;25.05;;;;;;;20.92;32.28;101255.16;5021316;28;20141;-69
2022/03/13 09:55:11;;;;;;;39.60;25.58;;;;;;;19.56;32.62;101244.25;5026508;28;20048;-74
2022/03/13 09:57:39;;;;;;;40.67;26.33;;;;;;;20.13;33.58;101248.63;5023027;28;20036;-72
2022/03/13 10:00:07;;;;;;;37.05;24.15;;;;;;;20.26;33.00;101253.56;5020005;28;20058;-71
2022/03/13 10:02:34;;;;;;;36.55;24.85;;;;;;;20.85;31.51;101249.09;5020928;28;20128;-72
2022/03/13 10:05:22;;;;;;;36.17;25.23;;;;;;;21.43;32.22;101249.19;5023218;28;20496;-72
2022/03/13 10:07:54;;;;;;;38.50;24.13;;;;;;;21.57;30.85;101246.53;5023607;28;20040;-70
2022/03/13 10:10:21;;;;;;;35.97;23.75;;;;;;;21.22;30.81;101240.97;5022178;28;20119;-72
2022/03/13 10:12:46;;;;;;;35.10;24.58;;;;;;;21.20;31.70;101240.44;5025462;28;20029;-70
2022/03/13 10:15:13;;;;;;;33.03;22.77;;;;;;;20.98;32.07;101242.81;5027164;28;20020;-70
2022/03/13 10:17:39;;;;;;;31.70;20.95;;;;;;;20.84;31.24;101247.44;5033779;28;20020;-69
2022/03/13 10:20:25;;;;;;;32.10;21.48;;;;;;;20.84;32.42;101239.03;5043614;28;20033;-72
2022/03/13 10:22:59;;;;;;;31.77;22.25;;;;;;;20.37;33.07;101232.03;5022771;28;20495;-69
2022/03/13 10:25:33;;;;;;;32.35;22.42;;;;;;;20.30;32.88;101223.16;5022740;28;20028;-70
2022/03/13 10:28:30;;;;;;;32.88;21.83;;;;;;;20.35;33.79;101218.38;5023426;28;20437;-69
2022/03/13 10:30:58;;;;;;;32.47;21.95;;;;;;;21.31;31.85;101212.44;5021867;28;20039;-70
2022/03/13 10:33:28;;;;;;;35.30;23.85;;;;;;;21.36;31.21;101218.81;5033406;28;20539;-68
2022/03/13 10:36:35;;;;;;;34.25;21.25;;;;;;;21.13;31.67;101211.97;5023321;28;20025;-70
2022/03/13 10:39:02;;;;;;;33.65;22.45;;;;;;;21.55;30.86;101206.88;5023047;28;20480;-70
2022/03/13 10:41:44;;;;;;;34.20;22.20;;;;;;;22.35;30.89;101192.19;5021013;28;20033;-78
2022/03/13 10:44:17;;;;;;;32.05;19.90;;;;;;;23.33;30.71;101200.75;5022410;28;20448;-64
2022/03/13 10:46:44;;;;;;;31.00;21.13;;;;;;;22.94;29.03;101199.19;5023214;28;20026;-65
2022/03/13 10:49:10;;;;;;;32.75;21.73;;;;;;;22.61;28.76;101199.13;5017169;28;20479;-65
2022/03/13 10:51:41;;;;;;;31.40;21.40;;;;;;;22.16;30.23;101192.22;5022343;28;20519;-65
2022/03/13 10:54:06;;;;;;;32.83;20.77;;;;;;;21.62;29.49;101194.22;5023505;28;20057;-65
2022/03/13 10:56:32;;;;;;;30.88;21.20;;;;;;;21.32;30.81;101200.13;5022335;28;20487;-65
2022/03/13 10:58:59;;;;;;;29.45;20.48;;;;;;;21.68;30.26;101193.03;5022637;28;20216;-64
2022/03/13 11:01:25;;;;;;;29.20;19.88;;;;;;;22.58;29.90;101196.91;5023646;28;20064;-64
2022/03/13 11:03:53;;;;;;;29.98;21.13;;;;;;;22.87;29.23;101188.34;5026249;28;20041;-65
2022/03/13 11:06:21;;;;;;;30.80;21.00;;;;;;;22.89;29.36;101191.69;5022707;28;20029;-64
2022/03/13 11:08:47;;;;;;;31.67;21.30;;;;;;;23.55;28.91;101187.72;5026069;28;20483;-64
2022/03/13 11:11:19;;;;;;;28.63;19.80;;;;;;;23.18;28.17;101185.06;5025294;28;20021;-65